sensor_id;sensor_type;location;lat;lon;timestamp;pressure;altitude;pressure_sealevel;temperature;humidity
47082;BME280;33066;49.296;14.470;2022-12-18T00:00:53;98282.44;;;0.37;31.63
47082;BME280;33066;49.296;14.470;2022-12-18T00:03:18;98286.61;;;0.36;31.44
47082;BME280;33066;49.296;14.470;2022-12-18T00:05:47;98284.66;;;0.51;30.81
47082;BME280;33066;49.296;14.470;2022-12-18T00:08:10;98286.38;;;0.19;30.93
47082;BME280;33066;49.296;14.470;2022-12-18T00:10:34;98287.90;;;0.29;31.16
47082;BME280;33066;49.296;14.470;2022-12-18T00:12:59;98293.10;;;0.14;31.71
47082;BME280;33066;49.296;14.470;2022-12-18T00:15:25;98289.43;;;0.36;31.70
47082;BME280;33066;49.296;14.470;2022-12-18T00:17:51;98294.69;;;-0.00;31.80
47082;BME280;33066;49.296;14.470;2022-12-18T00:20:16;98299.16;;;0.02;32.15
47082;BME280;33066;49.296;14.470;2022-12-18T00:22:42;98301.62;;;0.06;31.96
47082;BME280;33066;49.296;14.470;2022-12-18T00:25:08;98303.08;;;0.21;31.81
47082;BME280;33066;49.296;14.470;2022-12-18T00:27:35;98303.49;;;0.33;31.63
47082;BME280;33066;49.296;14.470;2022-12-18T00:29:58;98300.37;;;0.41;31.92
47082;BME280;33066;49.296;14.470;2022-12-18T00:32:23;98300.79;;;0.61;32.43
47082;BME280;33066;49.296;14.470;2022-12-18T00:34:49;98300.32;;;0.63;32.91
47082;BME280;33066;49.296;14.470;2022-12-18T00:37:14;98304.36;;;0.21;33.14
47082;BME280;33066;49.296;14.470;2022-12-18T00:39:40;98308.60;;;0.57;32.56
47082;BME280;33066;49.296;14.470;2022-12-18T00:42:07;98312.07;;;0.38;32.31
47082;BME280;33066;49.296;14.470;2022-12-18T00:44:30;98316.93;;;0.63;31.75
47082;BME280;33066;49.296;14.470;2022-12-18T00:46:56;98314.26;;;0.75;31.76
47082;BME280;33066;49.296;14.470;2022-12-18T00:49:21;98314.84;;;0.61;31.69
47082;BME280;33066;49.296;14.470;2022-12-18T00:51:47;98319.24;;;0.36;32.04
47082;BME280;33066;49.296;14.470;2022-12-18T00:54:13;98322.51;;;0.72;32.38
47082;BME280;33066;49.296;14.470;2022-12-18T00:56:38;98323.71;;;0.52;32.31
47082;BME280;33066;49.296;14.470;2022-12-18T00:59:04;98326.48;;;0.58;32.17
47082;BME280;33066;49.296;14.470;2022-12-18T01:01:29;98324.66;;;0.60;32.32
47082;BME280;33066;49.296;14.470;2022-12-18T01:03:56;98325.43;;;0.52;32.20
47082;BME280;33066;49.296;14.470;2022-12-18T01:06:20;98329.87;;;0.50;32.03
47082;BME280;33066;49.296;14.470;2022-12-18T01:08:45;98332.15;;;0.44;31.94
47082;BME280;33066;49.296;14.470;2022-12-18T01:11:11;98342.71;;;0.61;32.26
47082;BME280;33066;49.296;14.470;2022-12-18T01:13:36;98351.99;;;0.39;31.94
47082;BME280;33066;49.296;14.470;2022-12-18T01:16:01;98355.01;;;0.49;31.24
47082;BME280;33066;49.296;14.470;2022-12-18T01:18:26;98349.42;;;0.85;30.87
47082;BME280;33066;49.296;14.470;2022-12-18T01:20:52;98350.47;;;0.95;30.53
47082;BME280;33066;49.296;14.470;2022-12-18T01:23:17;98350.87;;;0.46;30.33
47082;BME280;33066;49.296;14.470;2022-12-18T01:25:43;98349.87;;;0.87;30.44
47082;BME280;33066;49.296;14.470;2022-12-18T01:28:09;98356.96;;;0.33;30.59
47082;BME280;33066;49.296;14.470;2022-12-18T01:30:34;98361.08;;;0.42;30.74
47082;BME280;33066;49.296;14.470;2022-12-18T01:33:00;98361.65;;;0.41;30.56
47082;BME280;33066;49.296;14.470;2022-12-18T01:35:25;98360.86;;;0.28;30.59
47082;BME280;33066;49.296;14.470;2022-12-18T01:37:55;98366.34;;;0.18;30.27
47082;BME280;33066;49.296;14.470;2022-12-18T01:40:15;98378.69;;;0.61;29.68
47082;BME280;33066;49.296;14.470;2022-12-18T01:42:41;98380.28;;;0.52;29.35
47082;BME280;33066;49.296;14.470;2022-12-18T01:45:23;98378.82;;;0.55;29.41
47082;BME280;33066;49.296;14.470;2022-12-18T01:47:36;98380.15;;;0.41;29.36
47082;BME280;33066;49.296;14.470;2022-12-18T01:50:00;98381.18;;;0.70;28.84
47082;BME280;33066;49.296;14.470;2022-12-18T01:52:25;98376.34;;;0.54;28.98
47082;BME280;33066;49.296;14.470;2022-12-18T01:54:50;98368.06;;;0.62;28.81
47082;BME280;33066;49.296;14.470;2022-12-18T01:57:15;98370.09;;;0.55;28.68
47082;BME280;33066;49.296;14.470;2022-12-18T01:59:43;98383.64;;;0.38;29.05
47082;BME280;33066;49.296;14.470;2022-12-18T02:02:06;98390.33;;;0.60;29.84
47082;BME280;33066;49.296;14.470;2022-12-18T02:04:31;98388.49;;;0.44;29.93
47082;BME280;33066;49.296;14.470;2022-12-18T02:07:01;98389.19;;;0.62;30.67
47082;BME280;33066;49.296;14.470;2022-12-18T02:09:27;98387.53;;;0.49;30.09
47082;BME280;33066;49.296;14.470;2022-12-18T02:11:55;98387.62;;;0.09;30.56
47082;BME280;33066;49.296;14.470;2022-12-18T02:14:19;98389.47;;;0.03;30.87
47082;BME280;33066;49.296;14.470;2022-12-18T02:16:45;98390.35;;;-0.12;31.27
47082;BME280;33066;49.296;14.470;2022-12-18T02:19:08;98394.29;;;-0.08;31.67
47082;BME280;33066;49.296;14.470;2022-12-18T02:21:36;98398.48;;;-0.24;32.22
47082;BME280;33066;49.296;14.470;2022-12-18T02:24:00;98396.30;;;-0.14;31.51
47082;BME280;33066;49.296;14.470;2022-12-18T02:26:24;98397.38;;;-0.10;31.45
47082;BME280;33066;49.296;14.470;2022-12-18T02:28:46;98392.70;;;0.20;31.87
47082;BME280;33066;49.296;14.470;2022-12-18T02:31:13;98392.78;;;0.32;31.15
47082;BME280;33066;49.296;14.470;2022-12-18T02:33:36;98393.89;;;0.79;30.69
47082;BME280;33066;49.296;14.470;2022-12-18T02:36:01;98394.94;;;0.56;30.81
47082;BME280;33066;49.296;14.470;2022-12-18T02:38:27;98398.40;;;0.24;31.07
47082;BME280;33066;49.296;14.470;2022-12-18T02:40:53;98404.85;;;0.40;31.34
47082;BME280;33066;49.296;14.470;2022-12-18T02:43:17;98412.72;;;-0.30;31.41
47082;BME280;33066;49.296;14.470;2022-12-18T02:45:49;98414.36;;;-0.27;32.01
47082;BME280;33066;49.296;14.470;2022-12-18T02:48:08;98412.04;;;-0.09;33.39
47082;BME280;33066;49.296;14.470;2022-12-18T02:50:37;98409.30;;;0.34;32.18
47082;BME280;33066;49.296;14.470;2022-12-18T02:53:06;98407.20;;;0.27;32.06
47082;BME280;33066;49.296;14.470;2022-12-18T02:55:31;98402.26;;;0.30;31.88
47082;BME280;33066;49.296;14.470;2022-12-18T02:57:53;98401.63;;;0.32;31.60
47082;BME280;33066;49.296;14.470;2022-12-18T03:00:18;98406.56;;;-0.16;31.72
47082;BME280;33066;49.296;14.470;2022-12-18T03:02:45;98415.16;;;0.28;31.16
47082;BME280;33066;49.296;14.470;2022-12-18T03:05:11;98416.98;;;0.20;31.15
47082;BME280;33066;49.296;14.470;2022-12-18T03:07:36;98421.06;;;0.27;31.19
47082;BME280;33066;49.296;14.470;2022-12-18T03:09:58;98420.84;;;0.22;31.23
47082;BME280;33066;49.296;14.470;2022-12-18T03:12:28;98422.16;;;0.21;31.36
47082;BME280;33066;49.296;14.470;2022-12-18T03:14:51;98421.10;;;-0.04;31.66
47082;BME280;33066;49.296;14.470;2022-12-18T03:17:16;98415.02;;;-0.11;31.42
47082;BME280;33066;49.296;14.470;2022-12-18T03:19:39;98416.92;;;0.15;31.33
47082;BME280;33066;49.296;14.470;2022-12-18T03:22:06;98419.95;;;-0.10;31.43
47082;BME280;33066;49.296;14.470;2022-12-18T03:24:31;98421.57;;;-0.22;31.47
47082;BME280;33066;49.296;14.470;2022-12-18T03:26:58;98422.58;;;0.21;31.58
47082;BME280;33066;49.296;14.470;2022-12-18T03:29:24;98424.31;;;-0.28;31.59
47082;BME280;33066;49.296;14.470;2022-12-18T03:31:49;98429.44;;;-0.12;31.61
47082;BME280;33066;49.296;14.470;2022-12-18T03:34:15;98429.12;;;-0.03;31.58
47082;BME280;33066;49.296;14.470;2022-12-18T03:36:37;98430.09;;;0.31;31.42
47082;BME280;33066;49.296;14.470;2022-12-18T03:39:03;98431.12;;;0.20;31.14
47082;BME280;33066;49.296;14.470;2022-12-18T03:41:31;98433.18;;;0.25;30.99
47082;BME280;33066;49.296;14.470;2022-12-18T03:43:57;98428.01;;;0.36;30.95
47082;BME280;33066;49.296;14.470;2022-12-18T03:46:25;98423.50;;;0.26;31.01
47082;BME280;33066;49.296;14.470;2022-12-18T03:48:45;98426.03;;;0.36;30.89
47082;BME280;33066;49.296;14.470;2022-12-18T03:51:13;98417.57;;;0.53;30.68
47082;BME280;33066;49.296;14.470;2022-12-18T03:53:38;98418.78;;;0.64;30.24
47082;BME280;33066;49.296;14.470;2022-12-18T03:56:01;98420.39;;;0.50;30.25
47082;BME280;33066;49.296;14.470;2022-12-18T03:58:26;98419.92;;;0.81;30.33
47082;BME280;33066;49.296;14.470;2022-12-18T04:00:52;98420.96;;;0.66;30.29
47082;BME280;33066;49.296;14.470;2022-12-18T04:03:16;98422.92;;;0.89;30.22
47082;BME280;33066;49.296;14.470;2022-12-18T04:05:42;98425.21;;;0.66;30.06
47082;BME280;33066;49.296;14.470;2022-12-18T04:08:06;98428.94;;;0.47;30.23
47082;BME280;33066;49.296;14.470;2022-12-18T04:13:00;98436.62;;;0.97;29.73
47082;BME280;33066;49.296;14.470;2022-12-18T04:15:26;98438.84;;;1.28;29.85
47082;BME280;33066;49.296;14.470;2022-12-18T04:17:51;98442.89;;;0.98;30.32
47082;BME280;33066;49.296;14.470;2022-12-18T04:20:17;98442.87;;;0.61;30.44
47082;BME280;33066;49.296;14.470;2022-12-18T04:22:42;98439.98;;;1.06;30.48
47082;BME280;33066;49.296;14.470;2022-12-18T04:25:08;98440.24;;;0.70;30.73
47082;BME280;33066;49.296;14.470;2022-12-18T04:27:33;98439.68;;;0.70;30.70
47082;BME280;33066;49.296;14.470;2022-12-18T04:29:59;98440.31;;;0.29;31.08
47082;BME280;33066;49.296;14.470;2022-12-18T04:32:24;98439.81;;;0.53;31.12
47082;BME280;33066;49.296;14.470;2022-12-18T04:34:50;98440.13;;;0.49;31.22
47082;BME280;33066;49.296;14.470;2022-12-18T04:37:15;98441.81;;;0.34;31.22
47082;BME280;33066;49.296;14.470;2022-12-18T04:39:41;98442.17;;;0.38;31.24
47082;BME280;33066;49.296;14.470;2022-12-18T04:42:07;98448.71;;;0.52;31.47
47082;BME280;33066;49.296;14.470;2022-12-18T04:44:32;98452.56;;;0.39;31.66
47082;BME280;33066;49.296;14.470;2022-12-18T04:46:57;98453.00;;;0.09;31.40
47082;BME280;33066;49.296;14.470;2022-12-18T04:49:23;98454.18;;;-0.18;31.66
47082;BME280;33066;49.296;14.470;2022-12-18T04:51:48;98454.72;;;-0.21;31.96
47082;BME280;33066;49.296;14.470;2022-12-18T04:54:14;98462.50;;;-0.17;32.20
47082;BME280;33066;49.296;14.470;2022-12-18T04:56:39;98465.88;;;0.18;31.87
47082;BME280;33066;49.296;14.470;2022-12-18T04:59:05;98471.33;;;0.22;31.55
47082;BME280;33066;49.296;14.470;2022-12-18T05:01:30;98477.01;;;0.30;32.40
47082;BME280;33066;49.296;14.470;2022-12-18T05:03:56;98484.12;;;0.10;32.68
47082;BME280;33066;49.296;14.470;2022-12-18T05:06:22;98489.61;;;0.19;32.58
47082;BME280;33066;49.296;14.470;2022-12-18T05:08:47;98487.87;;;0.31;31.84
47082;BME280;33066;49.296;14.470;2022-12-18T05:11:14;98488.27;;;0.43;31.71
47082;BME280;33066;49.296;14.470;2022-12-18T05:13:39;98491.54;;;0.49;31.44
47082;BME280;33066;49.296;14.470;2022-12-18T05:16:04;98485.74;;;0.57;31.25
47082;BME280;33066;49.296;14.470;2022-12-18T05:18:29;98488.37;;;0.60;31.28
47082;BME280;33066;49.296;14.470;2022-12-18T05:20:55;98492.81;;;0.34;31.07
47082;BME280;33066;49.296;14.470;2022-12-18T05:23:21;98492.79;;;0.05;31.09
47082;BME280;33066;49.296;14.470;2022-12-18T05:25:50;98495.75;;;-0.04;31.13
47082;BME280;33066;49.296;14.470;2022-12-18T05:28:10;98502.08;;;0.30;31.12
47082;BME280;33066;49.296;14.470;2022-12-18T05:30:35;98504.01;;;0.26;31.16
47082;BME280;33066;49.296;14.470;2022-12-18T05:33:01;98500.99;;;0.30;31.44
47082;BME280;33066;49.296;14.470;2022-12-18T05:35:27;98500.23;;;0.08;31.18
47082;BME280;33066;49.296;14.470;2022-12-18T05:37:52;98496.48;;;-0.06;31.04
47082;BME280;33066;49.296;14.470;2022-12-18T05:40:18;98497.21;;;-0.28;31.54
47082;BME280;33066;49.296;14.470;2022-12-18T05:42:43;98502.59;;;-0.32;31.29
47082;BME280;33066;49.296;14.470;2022-12-18T05:45:09;98511.55;;;-0.09;31.55
47082;BME280;33066;49.296;14.470;2022-12-18T05:47:34;98515.24;;;-0.26;31.89
47082;BME280;33066;49.296;14.470;2022-12-18T05:50:00;98512.98;;;-0.04;32.20
47082;BME280;33066;49.296;14.470;2022-12-18T05:52:25;98514.98;;;-0.41;31.93
47082;BME280;33066;49.296;14.470;2022-12-18T05:54:50;98519.29;;;-0.28;32.36
47082;BME280;33066;49.296;14.470;2022-12-18T05:57:16;98518.02;;;-0.26;32.22
47082;BME280;33066;49.296;14.470;2022-12-18T05:59:42;98518.29;;;0.12;31.87
47082;BME280;33066;49.296;14.470;2022-12-18T06:02:07;98520.35;;;0.22;31.23
47082;BME280;33066;49.296;14.470;2022-12-18T06:04:32;98522.35;;;0.38;31.04
47082;BME280;33066;49.296;14.470;2022-12-18T06:06:58;98522.47;;;0.14;30.70
47082;BME280;33066;49.296;14.470;2022-12-18T06:09:23;98523.21;;;0.08;30.70
47082;BME280;33066;49.296;14.470;2022-12-18T06:11:51;98528.70;;;0.11;30.69
47082;BME280;33066;49.296;14.470;2022-12-18T06:14:14;98534.86;;;-0.12;30.97
47082;BME280;33066;49.296;14.470;2022-12-18T06:16:40;98546.34;;;-0.43;31.21
47082;BME280;33066;49.296;14.470;2022-12-18T06:19:05;98543.51;;;-0.02;31.24
47082;BME280;33066;49.296;14.470;2022-12-18T06:21:31;98544.43;;;-0.26;31.23
47082;BME280;33066;49.296;14.470;2022-12-18T06:23:56;98538.49;;;0.15;31.02
47082;BME280;33066;49.296;14.470;2022-12-18T06:26:22;98543.48;;;0.23;30.85
47082;BME280;33066;49.296;14.470;2022-12-18T06:28:47;98553.15;;;-0.29;30.76
47082;BME280;33066;49.296;14.470;2022-12-18T06:31:12;98562.23;;;-0.36;30.82
47082;BME280;33066;49.296;14.470;2022-12-18T06:33:38;98564.47;;;-0.24;30.63
47082;BME280;33066;49.296;14.470;2022-12-18T06:36:05;98562.95;;;-0.16;30.79
47082;BME280;33066;49.296;14.470;2022-12-18T06:38:28;98566.25;;;-0.12;30.64
47082;BME280;33066;49.296;14.470;2022-12-18T06:40:54;98571.64;;;-0.17;30.62
47082;BME280;33066;49.296;14.470;2022-12-18T06:43:19;98572.11;;;-0.35;30.70
47082;BME280;33066;49.296;14.470;2022-12-18T06:45:45;98566.87;;;-0.51;30.70
47082;BME280;33066;49.296;14.470;2022-12-18T06:48:10;98567.82;;;-0.53;30.61
47082;BME280;33066;49.296;14.470;2022-12-18T06:50:36;98574.64;;;-0.54;30.84
47082;BME280;33066;49.296;14.470;2022-12-18T06:53:02;98581.68;;;-0.46;30.70
47082;BME280;33066;49.296;14.470;2022-12-18T06:55:27;98581.99;;;-0.56;30.92
47082;BME280;33066;49.296;14.470;2022-12-18T06:57:52;98580.69;;;-0.27;30.79
47082;BME280;33066;49.296;14.470;2022-12-18T07:00:18;98582.89;;;-0.25;30.67
47082;BME280;33066;49.296;14.470;2022-12-18T07:02:43;98587.22;;;-0.21;30.81
47082;BME280;33066;49.296;14.470;2022-12-18T07:05:08;98590.27;;;-0.39;30.83
47082;BME280;33066;49.296;14.470;2022-12-18T07:07:34;98592.68;;;-0.29;30.70
47082;BME280;33066;49.296;14.470;2022-12-18T07:09:59;98591.31;;;-0.39;30.77
47082;BME280;33066;49.296;14.470;2022-12-18T07:12:24;98598.07;;;-0.10;30.72
47082;BME280;33066;49.296;14.470;2022-12-18T07:14:50;98599.47;;;-0.62;30.59
47082;BME280;33066;49.296;14.470;2022-12-18T07:17:15;98596.94;;;-0.34;30.58
47082;BME280;33066;49.296;14.470;2022-12-18T07:19:41;98601.54;;;-0.54;30.22
47082;BME280;33066;49.296;14.470;2022-12-18T07:22:06;98607.74;;;-0.29;30.36
47082;BME280;33066;49.296;14.470;2022-12-18T07:24:32;98606.08;;;-0.38;30.61
47082;BME280;33066;49.296;14.470;2022-12-18T07:26:57;98607.55;;;-0.09;30.46
47082;BME280;33066;49.296;14.470;2022-12-18T07:29:23;98612.52;;;-0.02;30.48
47082;BME280;33066;49.296;14.470;2022-12-18T07:31:48;98614.22;;;0.01;30.43
47082;BME280;33066;49.296;14.470;2022-12-18T07:34:14;98612.91;;;-0.18;30.21
47082;BME280;33066;49.296;14.470;2022-12-18T07:36:39;98609.90;;;0.30;29.88
47082;BME280;33066;49.296;14.470;2022-12-18T07:39:05;98611.90;;;0.08;29.75
47082;BME280;33066;49.296;14.470;2022-12-18T07:41:31;98622.20;;;-0.28;29.78
47082;BME280;33066;49.296;14.470;2022-12-18T07:43:57;98628.06;;;-0.07;29.91
47082;BME280;33066;49.296;14.470;2022-12-18T07:46:22;98635.22;;;-0.18;29.65
47082;BME280;33066;49.296;14.470;2022-12-18T07:48:48;98638.23;;;-0.21;29.91
47082;BME280;33066;49.296;14.470;2022-12-18T07:51:13;98645.93;;;-0.35;29.69
47082;BME280;33066;49.296;14.470;2022-12-18T07:53:40;98647.67;;;-0.03;29.60
47082;BME280;33066;49.296;14.470;2022-12-18T07:56:07;98647.12;;;0.19;29.55
47082;BME280;33066;49.296;14.470;2022-12-18T07:58:30;98652.34;;;-0.24;29.34
47082;BME280;33066;49.296;14.470;2022-12-18T08:01:04;98654.22;;;0.02;29.27
47082;BME280;33066;49.296;14.470;2022-12-18T08:03:20;98651.52;;;-0.29;29.53
47082;BME280;33066;49.296;14.470;2022-12-18T08:05:49;98648.38;;;-0.20;29.31
47082;BME280;33066;49.296;14.470;2022-12-18T08:08:11;98652.31;;;-0.24;29.41
47082;BME280;33066;49.296;14.470;2022-12-18T08:10:37;98651.30;;;-0.18;29.43
47082;BME280;33066;49.296;14.470;2022-12-18T08:13:02;98654.76;;;-0.30;29.35
47082;BME280;33066;49.296;14.470;2022-12-18T08:15:28;98664.67;;;-0.57;29.53
47082;BME280;33066;49.296;14.470;2022-12-18T08:17:56;98668.74;;;-0.53;29.74
47082;BME280;33066;49.296;14.470;2022-12-18T08:20:19;98659.76;;;-0.21;29.58
47082;BME280;33066;49.296;14.470;2022-12-18T08:22:44;98658.29;;;-0.21;29.37
47082;BME280;33066;49.296;14.470;2022-12-18T08:25:10;98656.93;;;0.13;29.29
47082;BME280;33066;49.296;14.470;2022-12-18T08:27:35;98658.02;;;-0.09;29.39
47082;BME280;33066;49.296;14.470;2022-12-18T08:30:02;98653.76;;;0.04;29.39
47082;BME280;33066;49.296;14.470;2022-12-18T08:32:27;98653.60;;;-0.13;29.71
47082;BME280;33066;49.296;14.470;2022-12-18T08:34:51;98658.35;;;-0.00;29.71
47082;BME280;33066;49.296;14.470;2022-12-18T08:37:16;98654.69;;;0.40;29.47
47082;BME280;33066;49.296;14.470;2022-12-18T08:39:41;98654.85;;;0.34;29.38
47082;BME280;33066;49.296;14.470;2022-12-18T08:42:07;98652.21;;;0.23;29.22
47082;BME280;33066;49.296;14.470;2022-12-18T08:44:32;98653.36;;;0.12;29.33
47082;BME280;33066;49.296;14.470;2022-12-18T08:46:58;98648.84;;;0.49;29.27
47082;BME280;33066;49.296;14.470;2022-12-18T08:49:23;98645.38;;;0.69;29.08
47082;BME280;33066;49.296;14.470;2022-12-18T08:51:54;98643.61;;;0.62;28.95
47082;BME280;33066;49.296;14.470;2022-12-18T08:54:14;98644.83;;;0.71;28.85
47082;BME280;33066;49.296;14.470;2022-12-18T08:56:39;98649.30;;;0.73;29.10
47082;BME280;33066;49.296;14.470;2022-12-18T08:59:04;98657.34;;;0.82;29.09
47082;BME280;33066;49.296;14.470;2022-12-18T09:01:29;98658.12;;;0.76;28.88
47082;BME280;33066;49.296;14.470;2022-12-18T09:03:54;98649.41;;;0.77;28.73
47082;BME280;33066;49.296;14.470;2022-12-18T09:06:21;98645.78;;;1.03;28.80
47082;BME280;33066;49.296;14.470;2022-12-18T09:08:45;98642.33;;;0.77;28.88
47082;BME280;33066;49.296;14.470;2022-12-18T09:11:14;98639.58;;;0.96;28.85
47082;BME280;33066;49.296;14.470;2022-12-18T09:13:36;98642.48;;;0.86;28.72
47082;BME280;33066;49.296;14.470;2022-12-18T09:16:03;98647.48;;;1.15;28.52
47082;BME280;33066;49.296;14.470;2022-12-18T09:18:26;98651.31;;;1.32;28.49
47082;BME280;33066;49.296;14.470;2022-12-18T09:20:52;98649.54;;;1.14;28.69
47082;BME280;33066;49.296;14.470;2022-12-18T09:23:17;98646.43;;;1.40;28.73
47082;BME280;33066;49.296;14.470;2022-12-18T09:25:42;98643.09;;;1.41;28.80
47082;BME280;33066;49.296;14.470;2022-12-18T09:28:11;98644.28;;;1.24;28.74
47082;BME280;33066;49.296;14.470;2022-12-18T09:30:34;98645.72;;;0.90;28.93
47082;BME280;33066;49.296;14.470;2022-12-18T09:32:59;98643.70;;;0.84;28.99
47082;BME280;33066;49.296;14.470;2022-12-18T09:35:25;98644.31;;;0.87;29.21
47082;BME280;33066;49.296;14.470;2022-12-18T09:37:50;98645.51;;;0.78;29.23
47082;BME280;33066;49.296;14.470;2022-12-18T09:40:18;98645.12;;;0.75;29.43
47082;BME280;33066;49.296;14.470;2022-12-18T09:42:45;98642.73;;;0.62;29.60
47082;BME280;33066;49.296;14.470;2022-12-18T09:45:12;98640.01;;;0.88;29.58
47082;BME280;33066;49.296;14.470;2022-12-18T09:47:35;98637.15;;;0.80;29.49
47082;BME280;33066;49.296;14.470;2022-12-18T09:50:01;98640.75;;;0.85;29.30
47082;BME280;33066;49.296;14.470;2022-12-18T09:52:26;98637.84;;;0.76;29.36
47082;BME280;33066;49.296;14.470;2022-12-18T09:54:53;98631.38;;;1.07;29.20
47082;BME280;33066;49.296;14.470;2022-12-18T09:57:17;98634.40;;;1.06;28.75
47082;BME280;33066;49.296;14.470;2022-12-18T09:59:42;98637.09;;;1.40;28.78
47082;BME280;33066;49.296;14.470;2022-12-18T10:02:12;98644.02;;;1.71;29.95
47082;BME280;33066;49.296;14.470;2022-12-18T10:04:32;98645.14;;;1.37;31.12
47082;BME280;33066;49.296;14.470;2022-12-18T10:07:02;98644.65;;;1.45;32.45
47082;BME280;33066;49.296;14.470;2022-12-18T10:09:28;98648.21;;;1.57;31.15
47082;BME280;33066;49.296;14.470;2022-12-18T10:11:56;98649.39;;;1.31;31.95
47082;BME280;33066;49.296;14.470;2022-12-18T10:14:19;98649.02;;;1.41;31.49
47082;BME280;33066;49.296;14.470;2022-12-18T10:16:47;98648.57;;;1.47;31.80
47082;BME280;33066;49.296;14.470;2022-12-18T10:19:17;98642.02;;;1.62;30.78
47082;BME280;33066;49.296;14.470;2022-12-18T10:21:33;98630.87;;;1.73;32.12
47082;BME280;33066;49.296;14.470;2022-12-18T10:24:02;98625.15;;;1.84;31.65
47082;BME280;33066;49.296;14.470;2022-12-18T10:26:21;98630.57;;;1.89;31.93
47082;BME280;33066;49.296;14.470;2022-12-18T10:28:47;98631.97;;;1.89;30.70
47082;BME280;33066;49.296;14.470;2022-12-18T10:31:16;98634.02;;;1.96;30.21
47082;BME280;33066;49.296;14.470;2022-12-18T10:33:38;98633.72;;;1.82;29.43
47082;BME280;33066;49.296;14.470;2022-12-18T10:36:05;98628.66;;;2.26;29.35
47082;BME280;33066;49.296;14.470;2022-12-18T10:38:31;98621.55;;;2.38;28.60
47082;BME280;33066;49.296;14.470;2022-12-18T10:40:57;98615.55;;;2.73;28.63
47082;BME280;33066;49.296;14.470;2022-12-18T10:43:23;98602.86;;;2.58;28.87
47082;BME280;33066;49.296;14.470;2022-12-18T10:48:18;98594.32;;;2.34;28.79
47082;BME280;33066;49.296;14.470;2022-12-18T10:50:37;98596.20;;;2.56;28.27
47082;BME280;33066;49.296;14.470;2022-12-18T10:53:04;98595.75;;;2.98;28.37
47082;BME280;33066;49.296;14.470;2022-12-18T10:55:31;98596.52;;;3.14;28.36
47082;BME280;33066;49.296;14.470;2022-12-18T10:57:53;98592.77;;;2.96;29.26
47082;BME280;33066;49.296;14.470;2022-12-18T11:00:23;98588.51;;;3.24;28.49
47082;BME280;33066;49.296;14.470;2022-12-18T11:02:44;98586.46;;;3.18;28.16
47082;BME280;33066;49.296;14.470;2022-12-18T11:05:24;98587.09;;;3.05;27.88
47082;BME280;33066;49.296;14.470;2022-12-18T11:10:01;98575.76;;;3.39;27.78
47082;BME280;33066;49.296;14.470;2022-12-18T11:12:28;98566.57;;;3.48;27.55
47082;BME280;33066;49.296;14.470;2022-12-18T11:14:53;98562.23;;;3.35;27.52
47082;BME280;33066;49.296;14.470;2022-12-18T11:17:20;98562.32;;;3.44;27.36
47082;BME280;33066;49.296;14.470;2022-12-18T11:19:42;98564.92;;;3.43;27.30
47082;BME280;33066;49.296;14.470;2022-12-18T11:22:19;98562.62;;;3.59;27.54
47082;BME280;33066;49.296;14.470;2022-12-18T11:24:35;98558.37;;;3.43;27.61
47082;BME280;33066;49.296;14.470;2022-12-18T11:27:02;98557.13;;;3.54;27.69
47082;BME280;33066;49.296;14.470;2022-12-18T11:29:31;98556.39;;;3.81;27.47
47082;BME280;33066;49.296;14.470;2022-12-18T11:31:50;98547.89;;;4.01;27.32
47082;BME280;33066;49.296;14.470;2022-12-18T11:34:22;98547.56;;;3.89;27.01
47082;BME280;33066;49.296;14.470;2022-12-18T11:36:44;98552.31;;;4.04;27.11
47082;BME280;33066;49.296;14.470;2022-12-18T11:39:12;98554.38;;;4.03;26.83
47082;BME280;33066;49.296;14.470;2022-12-18T11:41:36;98555.87;;;4.13;26.85
47082;BME280;33066;49.296;14.470;2022-12-18T11:43:59;98557.75;;;3.91;26.51
47082;BME280;33066;49.296;14.470;2022-12-18T11:46:28;98561.26;;;3.92;26.78
47082;BME280;33066;49.296;14.470;2022-12-18T11:48:54;98564.78;;;4.03;26.69
47082;BME280;33066;49.296;14.470;2022-12-18T11:51:17;98567.62;;;3.71;26.76
47082;BME280;33066;49.296;14.470;2022-12-18T11:53:39;98571.06;;;3.81;26.87
47082;BME280;33066;49.296;14.470;2022-12-18T11:56:19;98563.94;;;3.87;26.83
47082;BME280;33066;49.296;14.470;2022-12-18T11:58:43;98556.33;;;4.08;26.92
47082;BME280;33066;49.296;14.470;2022-12-18T12:01:03;98555.38;;;4.24;26.78
47082;BME280;33066;49.296;14.470;2022-12-18T12:05:57;98557.55;;;4.17;26.72
47082;BME280;33066;49.296;14.470;2022-12-18T12:08:18;98557.89;;;4.32;26.60
47082;BME280;33066;49.296;14.470;2022-12-18T12:10:49;98557.50;;;4.10;26.72
47082;BME280;33066;49.296;14.470;2022-12-18T12:13:17;98556.37;;;3.80;27.20
47082;BME280;33066;49.296;14.470;2022-12-18T12:15:38;98550.63;;;3.89;27.10
47082;BME280;33066;49.296;14.470;2022-12-18T12:18:01;98551.12;;;4.12;27.14
47082;BME280;33066;49.296;14.470;2022-12-18T12:20:24;98550.55;;;4.00;27.28
47082;BME280;33066;49.296;14.470;2022-12-18T12:22:52;98544.74;;;3.89;27.06
47082;BME280;33066;49.296;14.470;2022-12-18T12:25:27;98544.36;;;4.23;27.05
47082;BME280;33066;49.296;14.470;2022-12-18T12:27:43;98547.86;;;4.03;27.00
47082;BME280;33066;49.296;14.470;2022-12-18T12:30:07;98551.56;;;4.59;26.94
47082;BME280;33066;49.296;14.470;2022-12-18T12:32:42;98553.39;;;4.25;27.00
47082;BME280;33066;49.296;14.470;2022-12-18T12:35:04;98552.79;;;4.38;26.93
47082;BME280;33066;49.296;14.470;2022-12-18T12:37:28;98552.83;;;4.53;26.65
47082;BME280;33066;49.296;14.470;2022-12-18T12:39:47;98562.43;;;4.26;26.71
47082;BME280;33066;49.296;14.470;2022-12-18T12:42:17;98563.18;;;4.28;26.81
47082;BME280;33066;49.296;14.470;2022-12-18T12:44:42;98560.01;;;4.20;26.64
47082;BME280;33066;49.296;14.470;2022-12-18T12:47:10;98566.11;;;4.27;26.86
47082;BME280;33066;49.296;14.470;2022-12-18T12:49:30;98561.90;;;3.85;26.70
47082;BME280;33066;49.296;14.470;2022-12-18T12:51:58;98564.99;;;4.22;26.75
47082;BME280;33066;49.296;14.470;2022-12-18T12:54:21;98569.84;;;3.95;26.99
47082;BME280;33066;49.296;14.470;2022-12-18T12:56:48;98568.91;;;3.68;27.18